Time;durP1;ratioP1;P1;durP2;ratioP2;P2;SDS_P1;SDS_P2;PMS_P1;PMS_P2;Temp;Humidity;BMP_temperature;BMP_pressure;BME280_temperature;BME280_humidity;BME280_pressure;Samples;Min_cycle;Max_cycle;Signal;HPM_P1;HPM_P2
2023/12/14 00:01:25;;;;;;;11.37;2.20;;;;;;;;;;4988084;28;20096;-48
2023/12/14 00:03:53;;;;;;;9.48;2.53;;;;;;;;;;4992738;28;20043;-48
2023/12/14 00:06:21;;;;;;;7.32;2.10;;;;;;;;;;4998974;28;20049;-48
2023/12/14 00:08:49;;;;;;;11.38;2.05;;;;;;;;;;4982602;28;20666;-50
2023/12/14 00:11:18;;;;;;;7.68;2.45;;;;;;;;;;5005639;28;20041;-47
2023/12/14 00:13:46;;;;;;;10.83;2.13;;;;;;;;;;4989585;28;20913;-52
2023/12/14 00:16:14;;;;;;;11.52;1.98;;;;;;;;;;5000520;28;20037;-49
2023/12/14 00:18:42;;;;;;;9.55;1.80;;;;;;;;;;4990248;28;20038;-49
2023/12/14 00:21:10;;;;;;;12.68;2.00;;;;;;;;;;5016593;28;20379;-49
2023/12/14 00:23:38;;;;;;;7.47;1.73;;;;;;;;;;4991000;28;20064;-47
2023/12/14 00:26:05;;;;;;;7.00;1.97;;;;;;;;;;4991011;28;20037;-51
2023/12/14 00:28:34;;;;;;;10.20;1.70;;;;;;;;;;4996036;28;20137;-50
2023/12/14 00:31:02;;;;;;;9.75;1.50;;;;;;;;;;4991756;28;20057;-48
2023/12/14 00:33:30;;;;;;;6.80;1.45;;;;;;;;;;4995030;28;20333;-52
2023/12/14 00:35:58;;;;;;;8.30;1.85;;;;;;;;;;4993737;28;20091;-47
2023/12/14 00:38:25;;;;;;;7.23;1.57;;;;;;;;;;4996986;28;21009;-51
2023/12/14 00:40:53;;;;;;;12.23;2.28;;;;;;;;;;4999923;28;20045;-49
2023/12/14 00:43:21;;;;;;;8.98;2.20;;;;;;;;;;4986406;28;20041;-51
2023/12/14 00:45:52;;;;;;;12.88;2.75;;;;;;;;;;5002258;28;20033;-48
2023/12/14 00:48:20;;;;;;;9.38;2.60;;;;;;;;;;4996273;28;20065;-49
2023/12/14 00:51:06;;;;;;;9.43;2.03;;;;;;;;;;4990248;28;20060;-49
2023/12/14 00:53:33;;;;;;;9.27;2.03;;;;;;;;;;5004042;28;20045;-49
2023/12/14 00:56:01;;;;;;;10.85;1.70;;;;;;;;;;4991432;28;20128;-49
2023/12/14 00:58:29;;;;;;;7.70;1.85;;;;;;;;;;5008055;28;20123;-46
2023/12/14 01:00:57;;;;;;;12.00;2.03;;;;;;;;;;4990300;28;20053;-47
2023/12/14 01:03:25;;;;;;;10.30;2.03;;;;;;;;;;4990087;28;20045;-51
2023/12/14 01:05:53;;;;;;;7.47;1.55;;;;;;;;;;4988692;28;20076;-49
2023/12/14 01:08:21;;;;;;;9.60;1.70;;;;;;;;;;5004756;28;20484;-48
2023/12/14 01:10:48;;;;;;;9.57;2.00;;;;;;;;;;4987654;28;20045;-47
2023/12/14 01:13:16;;;;;;;7.13;1.98;;;;;;;;;;5007316;28;20125;-50
2023/12/14 01:15:46;;;;;;;10.13;2.10;;;;;;;;;;4991531;28;20418;-47
2023/12/14 01:18:15;;;;;;;11.32;2.00;;;;;;;;;;4999729;28;20046;-51
2023/12/14 01:20:42;;;;;;;11.68;1.85;;;;;;;;;;5000343;28;20049;-46
2023/12/14 01:23:11;;;;;;;8.65;1.67;;;;;;;;;;4993390;28;20053;-48
2023/12/14 01:25:39;;;;;;;8.25;1.90;;;;;;;;;;5003981;28;20138;-47
2023/12/14 01:28:06;;;;;;;9.50;2.23;;;;;;;;;;4999278;28;20073;-47
2023/12/14 01:30:34;;;;;;;11.15;3.00;;;;;;;;;;5005042;28;20045;-47
2023/12/14 01:33:02;;;;;;;10.30;1.70;;;;;;;;;;4992788;28;20079;-47
2023/12/14 01:35:31;;;;;;;6.70;1.92;;;;;;;;;;5000670;28;20120;-50
2023/12/14 01:37:59;;;;;;;8.60;2.00;;;;;;;;;;5001062;28;20047;-46
2023/12/14 01:40:26;;;;;;;7.63;2.10;;;;;;;;;;4995793;28;20048;-49
2023/12/14 01:42:55;;;;;;;7.15;1.98;;;;;;;;;;5000350;28;20042;-50
2023/12/14 01:45:24;;;;;;;9.65;2.42;;;;;;;;;;4996936;28;20743;-49
2023/12/14 01:47:52;;;;;;;8.77;2.25;;;;;;;;;;4997229;28;20042;-51
2023/12/14 01:50:20;;;;;;;7.13;1.88;;;;;;;;;;5001784;28;20073;-51
2023/12/14 01:52:49;;;;;;;9.67;3.43;;;;;;;;;;4989405;28;20049;-49
2023/12/14 01:55:16;;;;;;;10.80;2.53;;;;;;;;;;4998974;28;20072;-49
2023/12/14 01:57:44;;;;;;;10.20;2.20;;;;;;;;;;4994754;28;20056;-47
2023/12/14 02:00:20;;;;;;;10.98;2.65;;;;;;;;;;5005353;28;20380;-49
2023/12/14 02:02:48;;;;;;;10.68;3.10;;;;;;;;;;4992490;28;20527;-49
2023/12/14 02:05:21;;;;;;;9.83;2.63;;;;;;;;;;5003867;28;20577;-52
2023/12/14 02:07:50;;;;;;;11.25;2.42;;;;;;;;;;5005624;28;20132;-50
2023/12/14 02:10:18;;;;;;;12.68;2.92;;;;;;;;;;4994744;28;20103;-48
2023/12/14 02:12:46;;;;;;;7.90;2.42;;;;;;;;;;5001694;28;20067;-47
2023/12/14 02:15:14;;;;;;;10.18;2.50;;;;;;;;;;4971845;28;20041;-50
2023/12/14 02:17:41;;;;;;;9.83;2.73;;;;;;;;;;5011439;28;20037;-50
2023/12/14 02:20:09;;;;;;;13.18;2.70;;;;;;;;;;4989264;28;20734;-48
2023/12/14 02:22:50;;;;;;;10.68;2.97;;;;;;;;;;5004325;28;20590;-49
2023/12/14 02:25:19;;;;;;;10.70;2.70;;;;;;;;;;4984078;28;20037;-48
2023/12/14 02:27:47;;;;;;;12.65;3.03;;;;;;;;;;5000537;28;20037;-51
2023/12/14 02:30:15;;;;;;;11.90;3.40;;;;;;;;;;4992976;28;20064;-47
2023/12/14 02:32:42;;;;;;;9.85;3.25;;;;;;;;;;5012493;28;20057;-47
2023/12/14 02:35:11;;;;;;;13.68;3.40;;;;;;;;;;4997484;28;20052;-48
2023/12/14 02:37:40;;;;;;;15.38;3.33;;;;;;;;;;4984017;28;20487;-48
2023/12/14 02:40:11;;;;;;;10.93;3.00;;;;;;;;;;4995976;28;20508;-50
2023/12/14 02:42:39;;;;;;;11.40;3.40;;;;;;;;;;4974645;28;20048;-50
2023/12/14 02:45:09;;;;;;;15.75;3.20;;;;;;;;;;4973355;28;20064;-52
2023/12/14 02:47:38;;;;;;;9.40;2.55;;;;;;;;;;5003921;28;20049;-48
2023/12/14 02:50:07;;;;;;;9.05;2.70;;;;;;;;;;4990311;28;24236;-48
2023/12/14 02:52:34;;;;;;;10.32;2.65;;;;;;;;;;4995482;28;20041;-52
2023/12/14 02:55:03;;;;;;;12.00;2.40;;;;;;;;;;5005104;28;20061;-48
2023/12/14 02:57:32;;;;;;;10.88;3.05;;;;;;;;;;4995618;28;20515;-47
2023/12/14 02:59:59;;;;;;;11.55;2.80;;;;;;;;;;4990864;28;20041;-50
2023/12/14 03:02:27;;;;;;;8.20;1.98;;;;;;;;;;5012288;28;20274;-47
2023/12/14 03:04:55;;;;;;;8.93;2.40;;;;;;;;;;4995971;28;20041;-48
2023/12/14 03:07:23;;;;;;;10.37;2.23;;;;;;;;;;4995745;28;20060;-52
2023/12/14 03:09:51;;;;;;;7.90;2.30;;;;;;;;;;5003200;28;20044;-47
2023/12/14 03:12:19;;;;;;;9.57;2.25;;;;;;;;;;4988678;28;20403;-50
2023/12/14 03:14:48;;;;;;;8.07;1.90;;;;;;;;;;4994177;28;20057;-52
2023/12/14 03:17:16;;;;;;;13.65;2.72;;;;;;;;;;4998521;28;20037;-47
2023/12/14 03:19:44;;;;;;;9.57;2.07;;;;;;;;;;4998170;28;20107;-47
2023/12/14 03:22:12;;;;;;;7.82;2.17;;;;;;;;;;4998078;28;20041;-51
2023/12/14 03:24:43;;;;;;;12.93;2.85;;;;;;;;;;4998129;28;20060;-50
2023/12/14 03:27:11;;;;;;;12.52;2.33;;;;;;;;;;4977129;28;20403;-48
2023/12/14 03:29:38;;;;;;;8.52;2.28;;;;;;;;;;5003067;28;20045;-49
2023/12/14 03:32:07;;;;;;;9.53;1.77;;;;;;;;;;4998108;28;20510;-50
2023/12/14 03:34:36;;;;;;;9.32;2.42;;;;;;;;;;4997407;28;20045;-47
2023/12/14 03:37:04;;;;;;;9.73;2.38;;;;;;;;;;4992440;28;20042;-48
2023/12/14 03:39:32;;;;;;;10.45;3.08;;;;;;;;;;5003867;28;20979;-47
2023/12/14 03:41:59;;;;;;;8.63;2.50;;;;;;;;;;4977238;28;20041;-50
2023/12/14 03:44:27;;;;;;;9.27;1.90;;;;;;;;;;4995844;28;20045;-47
2023/12/14 03:46:55;;;;;;;6.28;2.10;;;;;;;;;;4986108;28;20033;-51
2023/12/14 03:49:24;;;;;;;8.45;2.10;;;;;;;;;;4990057;28;20103;-49
2023/12/14 03:51:52;;;;;;;9.23;2.10;;;;;;;;;;4996615;28;20042;-47
2023/12/14 03:54:20;;;;;;;10.75;2.33;;;;;;;;;;4999602;28;20057;-48
2023/12/14 03:56:47;;;;;;;12.27;2.83;;;;;;;;;;4997305;28;20037;-50
2023/12/14 03:59:15;;;;;;;8.68;2.22;;;;;;;;;;4990471;28;20054;-52
2023/12/14 04:01:43;;;;;;;10.20;2.40;;;;;;;;;;4983866;28;20065;-47
2023/12/14 04:04:11;;;;;;;13.05;2.65;;;;;;;;;;4999557;28;20594;-51
2023/12/14 04:06:40;;;;;;;7.80;2.25;;;;;;;;;;5000121;28;20551;-48
2023/12/14 04:09:07;;;;;;;11.13;2.30;;;;;;;;;;4992286;28;20052;-48
2023/12/14 04:11:35;;;;;;;10.13;2.42;;;;;;;;;;4988480;28;20492;-50
2023/12/14 04:14:03;;;;;;;11.52;2.40;;;;;;;;;;4999957;28;20046;-48
2023/12/14 04:16:30;;;;;;;9.50;2.53;;;;;;;;;;4992279;28;20046;-48
2023/12/14 04:19:00;;;;;;;6.88;2.35;;;;;;;;;;4997622;28;20064;-47
2023/12/14 04:21:27;;;;;;;7.70;2.40;;;;;;;;;;4998039;28;20045;-50
2023/12/14 04:23:57;;;;;;;9.35;2.60;;;;;;;;;;4972215;28;20054;-53
2023/12/14 04:26:25;;;;;;;13.35;2.63;;;;;;;;;;5003987;28;20046;-51
2023/12/14 04:28:53;;;;;;;9.57;2.30;;;;;;;;;;5005500;28;20431;-49
2023/12/14 04:31:20;;;;;;;11.02;2.50;;;;;;;;;;4983170;28;20038;-49
2023/12/14 04:33:48;;;;;;;9.33;1.87;;;;;;;;;;5003625;28;20582;-48
2023/12/14 04:36:18;;;;;;;10.52;2.55;;;;;;;;;;5011703;28;20037;-47
2023/12/14 04:38:46;;;;;;;9.32;2.95;;;;;;;;;;5005313;28;20038;-48
2023/12/14 04:41:16;;;;;;;10.20;2.20;;;;;;;;;;4998730;28;20037;-51
2023/12/14 04:43:43;;;;;;;7.55;2.38;;;;;;;;;;5000377;28;20049;-49
2023/12/14 04:46:11;;;;;;;7.17;2.20;;;;;;;;;;4989374;28;20055;-47
2023/12/14 04:48:39;;;;;;;10.38;2.55;;;;;;;;;;5004561;28;20052;-47
2023/12/14 04:51:11;;;;;;;9.18;2.60;;;;;;;;;;4992120;28;20056;-47
2023/12/14 04:53:39;;;;;;;8.90;2.08;;;;;;;;;;4992397;28;20586;-47
2023/12/14 04:56:10;;;;;;;9.13;2.15;;;;;;;;;;5001016;28;20060;-48
2023/12/14 04:58:39;;;;;;;13.17;2.90;;;;;;;;;;4994730;28;20045;-50
2023/12/14 05:01:07;;;;;;;12.50;2.65;;;;;;;;;;4986448;28;20961;-50
2023/12/14 05:03:36;;;;;;;10.50;2.42;;;;;;;;;;5001733;28;20041;-49
2023/12/14 05:06:03;;;;;;;13.55;2.78;;;;;;;;;;4993761;28;20046;-50
2023/12/14 05:08:31;;;;;;;9.40;1.92;;;;;;;;;;4995119;28;20048;-50
2023/12/14 05:11:01;;;;;;;11.63;2.33;;;;;;;;;;4995817;28;20591;-49
2023/12/14 05:13:29;;;;;;;12.27;2.35;;;;;;;;;;5005465;28;20042;-50
2023/12/14 05:15:58;;;;;;;11.02;2.33;;;;;;;;;;4995671;28;20095;-47
2023/12/14 05:18:26;;;;;;;6.10;1.63;;;;;;;;;;5006079;28;20053;-48
2023/12/14 05:20:54;;;;;;;10.02;2.10;;;;;;;;;;5000685;28;20099;-47
2023/12/14 05:23:22;;;;;;;9.60;2.30;;;;;;;;;;5002550;28;20400;-48
2023/12/14 05:25:51;;;;;;;8.18;1.85;;;;;;;;;;4989758;28;20045;-51
2023/12/14 05:28:19;;;;;;;15.40;2.75;;;;;;;;;;5001489;28;20136;-50
2023/12/14 05:30:46;;;;;;;6.25;1.90;;;;;;;;;;4980322;28;20033;-47
2023/12/14 05:33:15;;;;;;;7.88;1.98;;;;;;;;;;5008481;28;20042;-48
2023/12/14 05:35:43;;;;;;;7.20;2.13;;;;;;;;;;5005045;28;20045;-50
2023/12/14 05:38:11;;;;;;;10.95;1.90;;;;;;;;;;4986883;28;20037;-49
2023/12/14 05:40:39;;;;;;;7.75;2.10;;;;;;;;;;5009270;28;20579;-52
2023/12/14 05:43:07;;;;;;;7.03;1.73;;;;;;;;;;5002491;28;20054;-49
2023/12/14 05:45:35;;;;;;;20.02;2.30;;;;;;;;;;5006469;28;20415;-50
2023/12/14 05:48:05;;;;;;;9.93;2.50;;;;;;;;;;4981398;28;20030;-49
2023/12/14 05:50:34;;;;;;;8.75;2.13;;;;;;;;;;4999115;28;20111;-50
2023/12/14 05:53:02;;;;;;;11.07;1.92;;;;;;;;;;4980729;28;20164;-52
2023/12/14 05:55:30;;;;;;;5.95;1.60;;;;;;;;;;5000721;28;20637;-48
2023/12/14 05:57:58;;;;;;;6.43;1.60;;;;;;;;;;4988399;28;20353;-50
2023/12/14 06:00:27;;;;;;;9.27;2.20;;;;;;;;;;4991250;28;20041;-47
2023/12/14 06:02:54;;;;;;;8.18;2.60;;;;;;;;;;4986336;28;20488;-47
2023/12/14 06:05:22;;;;;;;7.20;1.60;;;;;;;;;;4986557;28;20569;-51
2023/12/14 06:07:52;;;;;;;8.55;1.70;;;;;;;;;;4983445;28;20104;-48
2023/12/14 06:10:21;;;;;;;7.80;1.70;;;;;;;;;;4989123;28;20052;-49
2023/12/14 06:12:48;;;;;;;10.80;1.40;;;;;;;;;;4974919;28;20048;-47
2023/12/14 06:15:16;;;;;;;10.57;1.70;;;;;;;;;;5000272;28;20069;-50
2023/12/14 06:17:44;;;;;;;6.57;1.60;;;;;;;;;;4994443;28;20049;-49
2023/12/14 06:20:13;;;;;;;11.07;2.10;;;;;;;;;;4995339;28;20131;-48
2023/12/14 06:22:41;;;;;;;9.95;2.42;;;;;;;;;;4979254;28;20732;-48
2023/12/14 06:25:11;;;;;;;8.07;1.47;;;;;;;;;;4972235;28;20056;-49
2023/12/14 06:27:40;;;;;;;7.75;1.35;;;;;;;;;;4986008;28;20053;-48
2023/12/14 06:30:09;;;;;;;7.07;1.50;;;;;;;;;;4985348;28;20471;-51
2023/12/14 06:32:37;;;;;;;7.07;1.77;;;;;;;;;;4992767;28;20407;-49
2023/12/14 06:35:06;;;;;;;10.35;1.65;;;;;;;;;;4978364;28;20057;-50
2023/12/14 06:37:51;;;;;;;6.53;1.53;;;;;;;;;;4995766;28;20109;-49
2023/12/14 06:40:23;;;;;;;7.13;1.33;;;;;;;;;;4979249;28;20037;-50
2023/12/14 06:42:52;;;;;;;6.13;1.40;;;;;;;;;;4992591;28;20034;-49
2023/12/14 06:45:20;;;;;;;6.47;1.42;;;;;;;;;;4987839;28;20056;-49
2023/12/14 06:47:48;;;;;;;7.53;1.48;;;;;;;;;;4990834;28;20385;-49
2023/12/14 06:50:16;;;;;;;8.83;2.00;;;;;;;;;;4996623;28;20495;-49
2023/12/14 06:52:44;;;;;;;6.80;1.30;;;;;;;;;;4984256;28;20095;-47
2023/12/14 06:55:14;;;;;;;7.15;1.85;;;;;;;;;;4999129;28;20064;-49
2023/12/14 06:57:46;;;;;;;6.30;1.38;;;;;;;;;;4990114;28;20415;-48
2023/12/14 07:00:15;;;;;;;9.30;1.60;;;;;;;;;;4993338;28;20044;-50
2023/12/14 07:02:43;;;;;;;7.23;1.50;;;;;;;;;;4975785;28;20848;-49
2023/12/14 07:05:11;;;;;;;6.88;1.08;;;;;;;;;;4971490;28;20055;-49
2023/12/14 07:07:39;;;;;;;8.57;1.15;;;;;;;;;;5006457;28;20049;-47
2023/12/14 07:10:07;;;;;;;7.90;1.35;;;;;;;;;;4969982;28;20099;-50
2023/12/14 07:12:34;;;;;;;6.93;1.63;;;;;;;;;;4986671;28;20038;-47
2023/12/14 07:15:05;;;;;;;10.17;1.57;;;;;;;;;;4979659;28;20156;-49
2023/12/14 07:17:33;;;;;;;8.60;2.17;;;;;;;;;;4972803;28;20034;-50
2023/12/14 07:20:01;;;;;;;6.75;1.10;;;;;;;;;;4989619;28;20048;-51
2023/12/14 07:22:29;;;;;;;7.82;1.60;;;;;;;;;;4988665;28;21856;-50
2023/12/14 07:24:57;;;;;;;7.85;1.25;;;;;;;;;;4996206;28;20095;-48
2023/12/14 07:27:27;;;;;;;8.67;1.77;;;;;;;;;;4994269;28;20033;-48
2023/12/14 07:29:55;;;;;;;6.32;1.35;;;;;;;;;;4991177;28;20159;-48
2023/12/14 07:32:24;;;;;;;6.03;0.98;;;;;;;;;;4993587;28;20063;-47
2023/12/14 07:34:51;;;;;;;10.05;1.60;;;;;;;;;;4997343;28;20051;-48
2023/12/14 07:37:19;;;;;;;8.85;1.50;;;;;;;;;;4993361;28;20041;-47
2023/12/14 07:39:49;;;;;;;5.23;1.40;;;;;;;;;;4951818;28;20869;-52
2023/12/14 07:42:19;;;;;;;6.90;1.25;;;;;;;;;;4879438;28;20701;-49
2023/12/14 07:44:47;;;;;;;9.60;1.02;;;;;;;;;;4961325;28;20069;-48
2023/12/14 07:47:16;;;;;;;7.75;1.08;;;;;;;;;;4991536;28;20052;-48
2023/12/14 07:49:45;;;;;;;8.27;1.38;;;;;;;;;;4993220;28;20514;-48
2023/12/14 07:52:13;;;;;;;6.83;1.17;;;;;;;;;;4997173;28;20037;-47
2023/12/14 07:54:41;;;;;;;5.53;1.25;;;;;;;;;;4998129;28;20056;-47
2023/12/14 07:57:09;;;;;;;9.43;2.40;;;;;;;;;;4987505;28;20038;-51
2023/12/14 07:59:39;;;;;;;8.48;1.85;;;;;;;;;;4983102;28;20355;-47
2023/12/14 08:02:06;;;;;;;8.40;1.45;;;;;;;;;;4997428;28;20132;-48
2023/12/14 08:04:34;;;;;;;6.90;1.47;;;;;;;;;;4979909;28;20524;-50
2023/12/14 08:07:04;;;;;;;6.45;1.25;;;;;;;;;;4996022;28;20107;-50
2023/12/14 08:09:32;;;;;;;6.10;1.30;;;;;;;;;;4981472;28;20049;-52
2023/12/14 08:12:00;;;;;;;6.78;1.80;;;;;;;;;;4999409;28;20045;-50
2023/12/14 08:14:28;;;;;;;8.75;1.90;;;;;;;;;;4997947;28;20140;-49
2023/12/14 08:16:55;;;;;;;9.30;1.20;;;;;;;;;;4995805;28;20554;-47
2023/12/14 08:19:23;;;;;;;4.90;1.27;;;;;;;;;;4638009;28;10000337;-49
2023/12/14 08:21:51;;;;;;;8.35;1.33;;;;;;;;;;4990835;28;20041;-48
2023/12/14 08:24:20;;;;;;;6.22;1.63;;;;;;;;;;4973659;28;20041;-51
2023/12/14 08:26:48;;;;;;;9.20;1.67;;;;;;;;;;4991285;28;20085;-48
2023/12/14 08:29:15;;;;;;;10.57;1.50;;;;;;;;;;4986744;28;20048;-47
2023/12/14 08:31:43;;;;;;;5.57;1.40;;;;;;;;;;4981712;28;20041;-47
2023/12/14 08:34:11;;;;;;;6.57;1.65;;;;;;;;;;4987583;28;20046;-48
2023/12/14 08:36:39;;;;;;;6.85;1.40;;;;;;;;;;5002300;28;22462;-50
2023/12/14 08:39:06;;;;;;;8.23;1.73;;;;;;;;;;4992631;28;20041;-48
2023/12/14 08:41:35;;;;;;;6.18;1.27;;;;;;;;;;4975778;28;20038;-46
2023/12/14 08:44:03;;;;;;;7.30;1.70;;;;;;;;;;4989141;28;20053;-48
2023/12/14 08:46:39;;;;;;;6.40;1.45;;;;;;;;;;4967358;28;20570;-48
2023/12/14 08:49:07;;;;;;;6.88;1.40;;;;;;;;;;4982881;28;20041;-48
2023/12/14 08:51:34;;;;;;;8.20;2.00;;;;;;;;;;4983311;28;20037;-48
2023/12/14 08:54:02;;;;;;;6.80;1.23;;;;;;;;;;4980473;28;20061;-48
2023/12/14 08:56:30;;;;;;;6.97;1.27;;;;;;;;;;4986801;28;20116;-48
2023/12/14 08:59:00;;;;;;;10.52;1.60;;;;;;;;;;4980195;28;20038;-51
2023/12/14 09:01:28;;;;;;;7.93;1.40;;;;;;;;;;4641455;28;10000316;-50
2023/12/14 09:03:56;;;;;;;10.10;1.40;;;;;;;;;;4953607;28;20301;-52
2023/12/14 09:06:23;;;;;;;6.22;1.33;;;;;;;;;;4967535;28;20050;-47
2023/12/14 09:08:51;;;;;;;6.57;0.90;;;;;;;;;;4976565;28;20038;-50
2023/12/14 09:11:19;;;;;;;8.93;1.48;;;;;;;;;;4974154;28;21778;-50
2023/12/14 09:13:47;;;;;;;7.55;1.20;;;;;;;;;;4977688;28;20041;-48
2023/12/14 09:16:16;;;;;;;11.27;1.03;;;;;;;;;;4975098;28;20420;-47
2023/12/14 09:18:44;;;;;;;9.40;1.60;;;;;;;;;;4974829;28;20056;-47
2023/12/14 09:21:12;;;;;;;11.90;1.80;;;;;;;;;;4987559;28;20117;-48
2023/12/14 09:23:40;;;;;;;5.38;1.08;;;;;;;;;;4985167;28;20045;-48
2023/12/14 09:26:08;;;;;;;7.53;1.42;;;;;;;;;;5002867;28;20049;-46
2023/12/14 09:28:37;;;;;;;7.53;1.20;;;;;;;;;;4981094;28;20685;-48
2023/12/14 09:31:05;;;;;;;6.07;1.33;;;;;;;;;;4989295;28;20033;-47
2023/12/14 09:33:38;;;;;;;6.70;1.58;;;;;;;;;;4992864;28;20112;-48
2023/12/14 09:36:06;;;;;;;7.40;1.42;;;;;;;;;;5007128;28;20488;-49
2023/12/14 09:38:33;;;;;;;7.38;1.50;;;;;;;;;;4974404;28;20049;-51
2023/12/14 09:41:01;;;;;;;9.50;1.30;;;;;;;;;;5006135;28;20049;-47
2023/12/14 09:43:29;;;;;;;8.50;1.33;;;;;;;;;;4987047;28;20048;-47
2023/12/14 09:45:57;;;;;;;7.32;1.15;;;;;;;;;;5012356;28;20049;-45
2023/12/14 09:48:26;;;;;;;9.77;1.27;;;;;;;;;;4995783;28;20041;-46
2023/12/14 09:50:55;;;;;;;7.50;1.90;;;;;;;;;;4999239;28;21037;-48
2023/12/14 09:53:23;;;;;;;10.13;1.50;;;;;;;;;;4990376;28;20052;-49
2023/12/14 09:55:55;;;;;;;9.25;1.20;;;;;;;;;;4996501;28;20516;-51
2023/12/14 09:58:22;;;;;;;6.68;1.45;;;;;;;;;;4996495;28;20072;-45
2023/12/14 10:00:50;;;;;;;5.55;1.30;;;;;;;;;;4996127;28;20433;-48
2023/12/14 10:03:18;;;;;;;5.88;1.50;;;;;;;;;;4985019;28;20052;-49
2023/12/14 10:05:46;;;;;;;11.57;1.47;;;;;;;;;;5002143;28;20045;-48
2023/12/14 10:08:16;;;;;;;5.93;0.98;;;;;;;;;;4987624;28;20037;-47
2023/12/14 10:10:44;;;;;;;8.75;1.25;;;;;;;;;;5002743;28;20128;-47
2023/12/14 10:13:12;;;;;;;6.93;1.50;;;;;;;;;;4990249;28;20132;-47
2023/12/14 10:15:44;;;;;;;7.65;1.60;;;;;;;;;;4999039;28;20156;-47
2023/12/14 10:18:11;;;;;;;10.10;1.90;;;;;;;;;;4994218;28;20045;-49
2023/12/14 10:20:40;;;;;;;11.88;1.70;;;;;;;;;;4985543;28;20641;-48
2023/12/14 10:23:10;;;;;;;8.32;1.67;;;;;;;;;;4994886;28;21112;-47
2023/12/14 10:25:39;;;;;;;7.03;1.40;;;;;;;;;;4986646;28;20073;-49
2023/12/14 10:28:07;;;;;;;7.00;1.63;;;;;;;;;;4990735;28;20052;-49
2023/12/14 10:30:35;;;;;;;5.87;1.67;;;;;;;;;;4986120;28;20120;-47
2023/12/14 10:33:04;;;;;;;12.02;1.73;;;;;;;;;;4981680;28;20045;-52
2023/12/14 10:35:38;;;;;;;8.02;1.20;;;;;;;;;;4934273;28;20115;-49
2023/12/14 10:38:06;;;;;;;7.78;1.40;;;;;;;;;;4982488;28;20045;-49
2023/12/14 10:40:36;;;;;;;10.15;1.88;;;;;;;;;;4977411;28;20041;-47
2023/12/14 10:43:06;;;;;;;8.83;1.40;;;;;;;;;;4995480;28;20088;-50
2023/12/14 10:45:35;;;;;;;10.13;2.00;;;;;;;;;;4984435;28;20604;-48
2023/12/14 10:48:04;;;;;;;10.60;2.22;;;;;;;;;;4996271;28;20309;-47
2023/12/14 10:50:33;;;;;;;8.70;1.73;;;;;;;;;;4993175;28;20033;-48
2023/12/14 10:53:01;;;;;;;9.25;1.70;;;;;;;;;;4982123;28;20107;-52
2023/12/14 10:55:32;;;;;;;8.33;1.87;;;;;;;;;;4993266;28;20057;-47
2023/12/14 10:58:01;;;;;;;8.65;1.50;;;;;;;;;;4987549;28;20042;-49
2023/12/14 11:00:31;;;;;;;9.75;1.85;;;;;;;;;;4978233;28;20717;-48
2023/12/14 11:03:00;;;;;;;11.02;1.45;;;;;;;;;;4629844;28;9999812;-50
2023/12/14 11:05:30;;;;;;;8.05;2.30;;;;;;;;;;4981542;28;20594;-47
2023/12/14 11:08:03;;;;;;;8.97;1.63;;;;;;;;;;4979533;28;20049;-48
2023/12/14 11:10:37;;;;;;;10.27;2.03;;;;;;;;;;4985772;28;20033;-49
2023/12/14 11:13:09;;;;;;;7.70;1.67;;;;;;;;;;4971956;28;20827;-47
2023/12/14 11:15:39;;;;;;;8.18;2.05;;;;;;;;;;4983896;28;20041;-49
2023/12/14 11:18:24;;;;;;;14.10;1.88;;;;;;;;;;4974026;28;20533;-47
2023/12/14 11:20:54;;;;;;;7.67;1.90;;;;;;;;;;4993776;28;20518;-47
2023/12/14 11:23:30;;;;;;;6.30;1.70;;;;;;;;;;4989299;28;20044;-50
2023/12/14 11:25:59;;;;;;;7.35;1.73;;;;;;;;;;4983709;28;20268;-46
2023/12/14 11:28:27;;;;;;;7.35;2.30;;;;;;;;;;4979987;28;20314;-50
2023/12/14 11:30:57;;;;;;;10.05;1.55;;;;;;;;;;4992550;28;20044;-47
2023/12/14 11:33:28;;;;;;;12.20;2.00;;;;;;;;;;4992905;28;20042;-49
2023/12/14 11:35:57;;;;;;;8.60;1.70;;;;;;;;;;5013331;28;20637;-46
2023/12/14 11:38:25;;;;;;;11.15;2.35;;;;;;;;;;4971274;28;20038;-48
2023/12/14 11:40:53;;;;;;;9.88;1.92;;;;;;;;;;4996157;28;20575;-45
2023/12/14 11:43:21;;;;;;;8.55;2.17;;;;;;;;;;4981278;28;20119;-45
2023/12/14 11:45:49;;;;;;;9.50;2.60;;;;;;;;;;5003563;28;20542;-47
2023/12/14 11:48:20;;;;;;;13.65;2.33;;;;;;;;;;4972424;28;20111;-46
2023/12/14 11:50:48;;;;;;;9.20;1.70;;;;;;;;;;4992672;28;20050;-49
2023/12/14 11:53:16;;;;;;;11.13;2.30;;;;;;;;;;4980427;28;20037;-48
2023/12/14 11:55:46;;;;;;;9.07;2.10;;;;;;;;;;4998614;28;20213;-47
2023/12/14 11:58:17;;;;;;;12.80;2.53;;;;;;;;;;4992639;28;20045;-45
2023/12/14 12:00:46;;;;;;;8.70;2.50;;;;;;;;;;4991571;28;20041;-50
2023/12/14 12:03:15;;;;;;;9.18;2.78;;;;;;;;;;4986005;28;20624;-50
2023/12/14 12:05:45;;;;;;;9.57;3.58;;;;;;;;;;4986468;28;20483;-48
2023/12/14 12:08:14;;;;;;;10.77;2.97;;;;;;;;;;4974798;28;20506;-50
2023/12/14 12:10:42;;;;;;;8.10;2.30;;;;;;;;;;4998634;28;20041;-46
2023/12/14 12:13:15;;;;;;;12.38;2.30;;;;;;;;;;4974463;28;21619;-47
2023/12/14 12:15:43;;;;;;;8.05;2.33;;;;;;;;;;4981086;28;20214;-50
2023/12/14 12:18:11;;;;;;;10.30;2.90;;;;;;;;;;4986922;28;20045;-48
2023/12/14 12:20:46;;;;;;;14.38;2.83;;;;;;;;;;4991942;28;21019;-46
2023/12/14 12:23:16;;;;;;;9.47;2.60;;;;;;;;;;4992878;28;20045;-47
2023/12/14 12:25:44;;;;;;;7.57;2.65;;;;;;;;;;4951029;28;21297;-48
2023/12/14 12:28:12;;;;;;;8.85;2.85;;;;;;;;;;4977520;28;20050;-48
2023/12/14 12:30:40;;;;;;;12.50;2.95;;;;;;;;;;4950809;28;20545;-52
2023/12/14 12:33:09;;;;;;;10.73;3.13;;;;;;;;;;4987155;28;20507;-50
2023/12/14 12:35:37;;;;;;;10.70;3.77;;;;;;;;;;4966791;28;20064;-46
2023/12/14 12:38:06;;;;;;;13.10;3.38;;;;;;;;;;4957727;28;20037;-46
2023/12/14 12:40:34;;;;;;;12.98;3.17;;;;;;;;;;4983415;28;20040;-47
2023/12/14 12:43:02;;;;;;;11.50;3.40;;;;;;;;;;4980384;28;20041;-45
2023/12/14 12:45:32;;;;;;;11.05;3.03;;;;;;;;;;4976164;28;20049;-46
2023/12/14 12:47:59;;;;;;;11.77;3.40;;;;;;;;;;4963742;28;20046;-48
2023/12/14 12:50:27;;;;;;;16.48;4.63;;;;;;;;;;4990212;28;20766;-47
2023/12/14 12:52:55;;;;;;;14.57;3.47;;;;;;;;;;4951902;28;20077;-48
2023/12/14 12:55:24;;;;;;;11.55;3.60;;;;;;;;;;4969212;28;20151;-48
2023/12/14 12:57:52;;;;;;;13.30;3.22;;;;;;;;;;4968715;28;20044;-50
2023/12/14 13:00:23;;;;;;;9.47;3.50;;;;;;;;;;4967892;28;20506;-47
2023/12/14 13:02:51;;;;;;;9.75;3.25;;;;;;;;;;4979474;28;20195;-46
2023/12/14 13:05:20;;;;;;;12.73;3.90;;;;;;;;;;4963673;28;20438;-46
2023/12/14 13:07:48;;;;;;;14.43;3.60;;;;;;;;;;4966482;28;20123;-48
2023/12/14 13:10:18;;;;;;;13.02;3.95;;;;;;;;;;4972549;28;20598;-48
2023/12/14 13:12:59;;;;;;;15.83;4.13;;;;;;;;;;4978837;28;20042;-46
2023/12/14 13:15:28;;;;;;;12.05;3.90;;;;;;;;;;4959903;28;20503;-48
2023/12/14 13:18:11;;;;;;;13.85;4.07;;;;;;;;;;4629639;28;10001413;-48
2023/12/14 13:20:39;;;;;;;11.93;4.22;;;;;;;;;;4972456;28;20256;-46
2023/12/14 13:23:07;;;;;;;11.82;3.90;;;;;;;;;;4941901;28;20041;-50
2023/12/14 13:25:45;;;;;;;11.57;4.22;;;;;;;;;;4966073;28;20041;-47
2023/12/14 13:28:14;;;;;;;12.17;4.30;;;;;;;;;;4965310;28;20084;-47
2023/12/14 13:30:45;;;;;;;9.82;3.83;;;;;;;;;;4969808;28;20675;-47
2023/12/14 13:33:13;;;;;;;10.63;4.22;;;;;;;;;;4281599;28;10000546;-49
2023/12/14 13:35:42;;;;;;;12.13;4.65;;;;;;;;;;4963834;28;20049;-49
2023/12/14 13:38:10;;;;;;;11.32;4.03;;;;;;;;;;4938734;28;20419;-46
2023/12/14 13:40:38;;;;;;;12.67;4.23;;;;;;;;;;4980643;28;20037;-48
2023/12/14 13:43:10;;;;;;;10.57;4.10;;;;;;;;;;4970609;28;20041;-49
2023/12/14 13:45:41;;;;;;;15.60;4.35;;;;;;;;;;4964950;28;20127;-49
2023/12/14 13:48:10;;;;;;;11.75;4.68;;;;;;;;;;4958782;28;20060;-47
2023/12/14 13:50:37;;;;;;;12.23;3.75;;;;;;;;;;4970347;28;20045;-49
2023/12/14 13:53:05;;;;;;;11.23;3.63;;;;;;;;;;4968198;28;20053;-51
2023/12/14 13:55:34;;;;;;;15.63;4.18;;;;;;;;;;4959637;28;20060;-46
2023/12/14 13:58:02;;;;;;;13.48;3.92;;;;;;;;;;4979921;28;20108;-45
2023/12/14 14:00:30;;;;;;;14.15;3.95;;;;;;;;;;4973433;28;20130;-46
2023/12/14 14:02:59;;;;;;;11.50;3.60;;;;;;;;;;4986198;28;20581;-50
2023/12/14 14:05:27;;;;;;;8.97;3.90;;;;;;;;;;4941007;28;21540;-50
2023/12/14 14:07:55;;;;;;;13.55;3.60;;;;;;;;;;4978665;28;20068;-47
2023/12/14 14:10:23;;;;;;;13.88;4.47;;;;;;;;;;4976125;28;20049;-48
2023/12/14 14:12:51;;;;;;;11.88;3.47;;;;;;;;;;4962089;28;20053;-47
2023/12/14 14:15:19;;;;;;;8.77;4.40;;;;;;;;;;4968419;28;20048;-48
2023/12/14 14:17:51;;;;;;;9.63;3.70;;;;;;;;;;4954091;28;21198;-50
2023/12/14 14:20:22;;;;;;;8.05;3.83;;;;;;;;;;4974868;28;20049;-46
2023/12/14 14:22:50;;;;;;;8.68;3.90;;;;;;;;;;4979783;28;20083;-46
2023/12/14 14:25:17;;;;;;;9.85;3.35;;;;;;;;;;4974898;28;20416;-50
2023/12/14 14:27:47;;;;;;;11.20;3.25;;;;;;;;;;4979032;28;20033;-45
2023/12/14 14:30:15;;;;;;;8.50;3.20;;;;;;;;;;4978849;28;20538;-46
2023/12/14 14:32:43;;;;;;;8.40;3.03;;;;;;;;;;4985622;28;20041;-47
2023/12/14 14:35:12;;;;;;;12.82;3.92;;;;;;;;;;4997598;28;20181;-46
2023/12/14 14:37:45;;;;;;;10.23;2.90;;;;;;;;;;4978882;28;20037;-47
2023/12/14 14:40:14;;;;;;;10.80;3.08;;;;;;;;;;4981915;28;20487;-46
2023/12/14 14:42:46;;;;;;;9.70;3.27;;;;;;;;;;4990887;28;20204;-47
2023/12/14 14:45:15;;;;;;;7.43;2.75;;;;;;;;;;4977560;28;20134;-47
2023/12/14 14:47:42;;;;;;;7.80;3.33;;;;;;;;;;4988865;28;20045;-49